Time;durP1;ratioP1;P1;durP2;ratioP2;P2;SDS_P1;SDS_P2;PMS_P1;PMS_P2;Temp;Humidity;BMP_temperature;BMP_pressure;BME280_temperature;BME280_humidity;BME280_pressure;Samples;Min_cycle;Max_cycle;Signal;HPM_P1;HPM_P2
2023/05/06 00:01:40;;;;;;;15.40;8.75;;;11.70;99.90;;;;;;5115992;28;20127;-80
2023/05/06 00:04:06;;;;;;;13.73;8.57;;;11.70;99.90;;;;;;5115813;28;20130;-80
2023/05/06 00:06:33;;;;;;;12.52;9.23;;;11.70;99.90;;;;;;5115564;28;20495;-81
2023/05/06 00:09:00;;;;;;;14.10;9.77;;;11.70;99.90;;;;;;5098481;28;20036;-80
2023/05/06 00:11:26;;;;;;;15.13;9.23;;;11.70;99.90;;;;;;5170095;27;20042;-80
2023/05/06 00:13:53;;;;;;;11.43;8.43;;;11.70;99.90;;;;;;5135616;27;20070;-80
2023/05/06 00:16:20;;;;;;;14.60;9.82;;;11.70;99.90;;;;;;5118531;27;20066;-80
2023/05/06 00:18:46;;;;;;;13.63;8.98;;;11.70;99.90;;;;;;5136293;27;20046;-80
2023/05/06 00:21:13;;;;;;;14.00;9.32;;;11.70;99.90;;;;;;5121692;28;20043;-80
2023/05/06 00:23:40;;;;;;;13.52;9.50;;;11.70;99.90;;;;;;5115308;28;20051;-80
2023/05/06 00:26:06;;;;;;;19.15;10.50;;;11.70;99.90;;;;;;5114796;28;20427;-80
2023/05/06 00:28:33;;;;;;;14.70;10.05;;;11.80;99.90;;;;;;5131463;28;20400;-81
2023/05/06 00:31:00;;;;;;;16.98;10.57;;;11.70;99.90;;;;;;5131521;28;20052;-80
2023/05/06 00:33:27;;;;;;;16.95;10.88;;;11.80;99.90;;;;;;5115096;28;20484;-81
2023/05/06 00:35:53;;;;;;;16.27;11.40;;;11.80;99.90;;;;;;5132237;28;20035;-81
2023/05/06 00:38:22;;;;;;;16.38;11.82;;;11.80;99.90;;;;;;5131570;28;20036;-81
2023/05/06 00:40:48;;;;;;;17.35;10.55;;;11.80;99.90;;;;;;5148797;28;20036;-81
2023/05/06 00:43:15;;;;;;;14.02;10.70;;;11.70;99.90;;;;;;5108044;28;20047;-80
2023/05/06 00:45:42;;;;;;;16.27;10.55;;;11.70;99.90;;;;;;5148852;28;20040;-81
2023/05/06 00:48:09;;;;;;;23.77;10.43;;;11.60;99.90;;;;;;5131916;28;20456;-80
2023/05/06 00:50:38;;;;;;;16.67;11.00;;;11.50;99.90;;;;;;5131873;28;20039;-80
2023/05/06 00:53:07;;;;;;;13.85;10.63;;;11.50;99.90;;;;;;5114942;28;20050;-80
2023/05/06 00:55:34;;;;;;;13.02;9.18;;;11.40;99.90;;;;;;5148604;28;20119;-80
2023/05/06 00:58:02;;;;;;;12.32;9.52;;;11.40;99.90;;;;;;5131359;28;20043;-80
2023/05/06 01:00:28;;;;;;;13.10;9.15;;;11.30;99.90;;;;;;5131244;28;20498;-81
2023/05/06 01:02:55;;;;;;;13.07;8.95;;;11.20;99.90;;;;;;5162736;27;20117;-80
2023/05/06 01:05:27;;;;;;;13.57;9.60;;;11.10;99.90;;;;;;5134948;27;20558;-80
2023/05/06 01:08:11;;;;;;;11.82;8.80;;;11.10;99.90;;;;;;5135666;27;20043;-80
2023/05/06 01:10:57;;;;;;;13.10;8.63;;;11.10;99.90;;;;;;5169001;27;20043;-80
2023/05/06 01:13:42;;;;;;;15.40;8.87;;;11.00;99.90;;;;;;5136962;28;20036;-80
2023/05/06 01:16:11;;;;;;;11.77;7.53;;;10.90;99.90;;;;;;5148158;28;20071;-80
2023/05/06 01:18:39;;;;;;;11.50;7.57;;;10.90;99.90;;;;;;5131927;28;20082;-80
2023/05/06 01:21:07;;;;;;;11.48;7.75;;;10.80;99.90;;;;;;5114500;28;20057;-80
2023/05/06 01:23:54;;;;;;;12.55;7.70;;;10.80;99.90;;;;;;5122778;27;20096;-80
2023/05/06 01:26:21;;;;;;;10.88;7.43;;;10.70;99.90;;;;;;5118313;27;20522;-81
2023/05/06 01:28:48;;;;;;;12.27;7.68;;;10.70;99.90;;;;;;5117436;27;20047;-81
2023/05/06 01:31:32;;;;;;;11.02;7.38;;;10.60;99.90;;;;;;5134076;27;20062;-80
2023/05/06 01:34:19;;;;;;;11.40;7.93;;;10.60;99.90;;;;;;5150801;27;20516;-81
2023/05/06 01:37:15;;;;;;;11.00;7.20;;;10.50;99.90;;;;;;5151652;27;20581;-80
2023/05/06 01:39:44;;;;;;;13.80;7.28;;;10.50;99.90;;;;;;5168434;27;20042;-80
2023/05/06 01:42:13;;;;;;;11.75;7.30;;;10.50;99.90;;;;;;5150966;27;20042;-80
2023/05/06 01:44:42;;;;;;;12.43;7.93;;;10.40;99.90;;;;;;5149987;27;20050;-80
2023/05/06 01:47:11;;;;;;;10.90;7.85;;;10.40;99.90;;;;;;5168863;27;20047;-81
2023/05/06 01:49:38;;;;;;;12.90;7.72;;;10.40;99.90;;;;;;5150967;27;20059;-80
2023/05/06 01:52:05;;;;;;;11.20;7.95;;;10.30;99.90;;;;;;5132476;28;20044;-81
2023/05/06 01:54:32;;;;;;;10.85;7.53;;;10.30;99.90;;;;;;5130620;28;20035;-80
2023/05/06 01:56:59;;;;;;;10.48;7.55;;;10.30;99.90;;;;;;5113625;28;20099;-80
2023/05/06 01:59:25;;;;;;;12.00;8.20;;;10.20;99.90;;;;;;5124580;27;20039;-80
2023/05/06 02:01:52;;;;;;;11.93;7.75;;;10.20;99.90;;;;;;5151220;27;20386;-81
2023/05/06 02:04:19;;;;;;;11.95;8.07;;;10.20;99.90;;;;;;5150330;27;20077;-80
2023/05/06 02:06:45;;;;;;;12.23;8.02;;;10.20;99.90;;;;;;5134527;27;20043;-81
2023/05/06 02:09:12;;;;;;;10.90;7.75;;;10.10;99.90;;;;;;5144065;28;20040;-80
2023/05/06 02:11:39;;;;;;;12.85;8.23;;;10.10;99.90;;;;;;5096908;28;20051;-80
2023/05/06 02:14:05;;;;;;;10.85;7.18;;;10.00;99.90;;;;;;5097081;28;20031;-81
2023/05/06 02:16:32;;;;;;;10.80;7.80;;;10.00;99.90;;;;;;5096420;28;20039;-80
2023/05/06 02:18:59;;;;;;;11.00;7.90;;;10.00;99.90;;;;;;5115057;27;20035;-80
2023/05/06 02:21:26;;;;;;;12.45;8.60;;;10.00;99.90;;;;;;5116544;27;20130;-80
2023/05/06 02:23:53;;;;;;;14.18;8.07;;;9.90;99.90;;;;;;5117407;27;20039;-81
2023/05/06 02:26:19;;;;;;;12.05;7.55;;;9.90;99.90;;;;;;5116396;27;20080;-80
2023/05/06 02:28:46;;;;;;;12.07;7.45;;;10.00;99.90;;;;;;5116839;27;20070;-80
2023/05/06 02:31:16;;;;;;;11.35;7.88;;;9.90;99.90;;;;;;5112817;28;20071;-80
2023/05/06 02:33:44;;;;;;;11.27;7.60;;;9.90;99.90;;;;;;5113386;28;20092;-80
2023/05/06 02:36:11;;;;;;;11.93;7.82;;;9.90;99.90;;;;;;5130032;28;20071;-80
2023/05/06 02:38:37;;;;;;;10.98;7.45;;;9.80;99.90;;;;;;5146076;28;20085;-80
2023/05/06 02:41:04;;;;;;;10.98;7.28;;;9.80;99.90;;;;;;5112900;28;20491;-80
2023/05/06 02:43:31;;;;;;;12.18;7.47;;;9.80;99.90;;;;;;5129450;28;20043;-80
2023/05/06 02:45:57;;;;;;;11.70;7.70;;;9.70;99.90;;;;;;5112941;28;20050;-80
2023/05/06 02:48:24;;;;;;;10.60;7.47;;;9.70;99.90;;;;;;5129263;28;20172;-80
2023/05/06 02:50:51;;;;;;;12.52;8.23;;;9.70;99.90;;;;;;5117803;28;20036;-80
2023/05/06 02:53:18;;;;;;;12.48;7.20;;;9.60;99.90;;;;;;5149512;27;20077;-80
2023/05/06 02:55:44;;;;;;;11.88;7.78;;;9.60;99.90;;;;;;5115916;28;20448;-80
2023/05/06 02:58:11;;;;;;;11.13;7.53;;;9.60;99.90;;;;;;5133167;28;20039;-80
2023/05/06 03:00:38;;;;;;;11.77;8.05;;;9.60;99.90;;;;;;5112638;28;20039;-80
2023/05/06 03:03:04;;;;;;;19.33;8.38;;;9.60;99.90;;;;;;5113170;28;20043;-81
2023/05/06 03:05:31;;;;;;;13.10;8.05;;;9.60;99.90;;;;;;5129301;28;20083;-80
2023/05/06 03:07:57;;;;;;;13.35;8.40;;;9.60;99.90;;;;;;5112639;28;20120;-80
2023/05/06 03:10:24;;;;;;;14.93;8.10;;;9.60;99.90;;;;;;5129336;28;20050;-80
2023/05/06 03:12:51;;;;;;;25.38;8.52;;;9.60;99.90;;;;;;5097287;28;20032;-80
2023/05/06 03:15:18;;;;;;;26.20;7.60;;;9.60;99.90;;;;;;5113664;28;20100;-80
2023/05/06 03:17:46;;;;;;;14.75;6.85;;;9.60;99.90;;;;;;5103940;28;20027;-80
2023/05/06 03:20:12;;;;;;;11.05;6.70;;;9.60;99.90;;;;;;5132955;28;20035;-80
2023/05/06 03:22:41;;;;;;;16.38;6.65;;;9.60;99.90;;;;;;5111988;28;20484;-81
2023/05/06 03:25:08;;;;;;;15.20;6.30;;;9.60;99.90;;;;;;5146752;28;20048;-80
2023/05/06 03:27:35;;;;;;;15.60;5.75;;;9.60;99.90;;;;;;5112238;28;20122;-80
2023/05/06 03:30:02;;;;;;;13.68;5.72;;;9.60;99.90;;;;;;5112309;28;20130;-80
2023/05/06 03:32:29;;;;;;;54.35;5.40;;;9.60;99.90;;;;;;5146146;28;20055;-80
2023/05/06 03:34:56;;;;;;;39.20;5.65;;;9.50;99.90;;;;;;5112661;28;20108;-80
2023/05/06 03:37:23;;;;;;;6.80;4.60;;;9.60;99.90;;;;;;5129069;28;20039;-80
2023/05/06 03:39:50;;;;;;;6.10;4.50;;;9.50;99.90;;;;;;5146174;28;20036;-80
2023/05/06 03:42:16;;;;;;;16.15;4.45;;;9.50;99.90;;;;;;5145755;28;20046;-80
2023/05/06 03:44:43;;;;;;;10.68;4.45;;;9.60;99.90;;;;;;5145752;28;20042;-80
2023/05/06 03:47:10;;;;;;;36.40;5.05;;;9.50;99.90;;;;;;5112205;28;20043;-80
2023/05/06 03:49:36;;;;;;;27.58;5.18;;;9.60;99.90;;;;;;5111808;28;20411;-80
2023/05/06 03:52:04;;;;;;;21.13;5.07;;;9.60;99.90;;;;;;5146110;28;20040;-80
2023/05/06 03:54:30;;;;;;;41.22;5.20;;;9.50;99.90;;;;;;5113358;28;20036;-80
2023/05/06 03:56:57;;;;;;;13.63;5.05;;;9.60;99.90;;;;;;5132234;28;20046;-80
2023/05/06 03:59:24;;;;;;;56.50;5.88;;;9.60;99.90;;;;;;5149554;28;20490;-80
2023/05/06 04:01:50;;;;;;;40.13;5.50;;;9.60;99.90;;;;;;5115308;28;20039;-80
2023/05/06 04:04:17;;;;;;;18.67;5.28;;;9.60;99.90;;;;;;5101250;28;20047;-80
2023/05/06 04:06:44;;;;;;;38.40;5.18;;;9.60;99.90;;;;;;5115378;28;20075;-80
2023/05/06 04:09:10;;;;;;;38.05;5.28;;;9.70;99.90;;;;;;5115353;28;20522;-81
2023/05/06 04:11:37;;;;;;;41.92;5.07;;;9.60;99.90;;;;;;5131912;28;20051;-80
2023/05/06 04:14:04;;;;;;;29.70;5.45;;;9.70;99.90;;;;;;5132482;28;20036;-80
2023/05/06 04:16:30;;;;;;;31.35;5.07;;;9.70;99.90;;;;;;5115382;28;20074;-80
2023/05/06 04:18:57;;;;;;;22.13;4.85;;;9.70;99.90;;;;;;5132072;28;20047;-80
2023/05/06 04:21:24;;;;;;;30.75;5.40;;;9.70;99.90;;;;;;5132338;28;20130;-80
2023/05/06 04:23:51;;;;;;;8.98;4.95;;;9.80;99.90;;;;;;5115069;28;20075;-80
2023/05/06 04:26:17;;;;;;;12.75;5.13;;;9.80;99.90;;;;;;5141446;27;20130;-80
2023/05/06 04:28:44;;;;;;;7.57;5.13;;;9.80;99.90;;;;;;5135436;27;20659;-80
2023/05/06 04:31:13;;;;;;;10.00;4.93;;;9.80;99.90;;;;;;5152447;27;20487;-80
2023/05/06 04:33:40;;;;;;;8.82;4.78;;;9.80;99.90;;;;;;5119302;27;20039;-80
2023/05/06 04:36:07;;;;;;;12.18;5.20;;;9.80;99.90;;;;;;5135737;27;20038;-80
2023/05/06 04:38:36;;;;;;;14.57;4.75;;;9.80;99.90;;;;;;5152520;27;20067;-80
2023/05/06 04:41:04;;;;;;;7.53;5.30;;;9.90;99.90;;;;;;5152075;27;20039;-80
2023/05/06 04:43:31;;;;;;;10.90;5.40;;;9.90;99.90;;;;;;5135403;27;20125;-81
2023/05/06 04:45:58;;;;;;;12.77;5.60;;;9.90;99.90;;;;;;5134708;27;20612;-79
2023/05/06 04:48:25;;;;;;;14.75;5.75;;;9.90;99.90;;;;;;5114711;28;20119;-81
2023/05/06 04:50:51;;;;;;;12.48;5.57;;;9.80;99.90;;;;;;5114481;28;20479;-80
2023/05/06 04:53:18;;;;;;;7.97;5.88;;;9.90;99.90;;;;;;5114801;28;20423;-81
2023/05/06 04:55:45;;;;;;;13.20;6.72;;;9.90;99.90;;;;;;5114230;28;20036;-80
2023/05/06 04:58:11;;;;;;;35.85;6.95;;;9.90;99.90;;;;;;5132408;28;20581;-80
2023/05/06 05:00:38;;;;;;;28.83;6.50;;;10.00;99.90;;;;;;5098612;28;20039;-80
2023/05/06 05:03:05;;;;;;;28.10;7.60;;;10.00;99.90;;;;;;5114355;28;20563;-80
2023/05/06 05:05:35;;;;;;;11.88;6.78;;;10.10;99.90;;;;;;5114418;28;20478;-80
2023/05/06 05:08:01;;;;;;;12.20;6.65;;;10.10;99.90;;;;;;5131342;28;20080;-80
2023/05/06 05:10:28;;;;;;;13.05;7.50;;;10.20;99.90;;;;;;5145296;27;20039;-80
2023/05/06 05:12:55;;;;;;;16.38;8.55;;;10.30;99.90;;;;;;5117468;27;20035;-80
2023/05/06 05:15:21;;;;;;;17.13;7.82;;;10.40;99.90;;;;;;5168420;27;20407;-80
2023/05/06 05:17:49;;;;;;;20.27;9.00;;;10.50;99.90;;;;;;5134303;27;20045;-80
2023/05/06 05:20:16;;;;;;;19.38;8.50;;;10.60;99.90;;;;;;5134630;27;20398;-80
2023/05/06 05:22:43;;;;;;;32.72;9.23;;;10.70;99.90;;;;;;5126982;28;20122;-81
2023/05/06 05:25:09;;;;;;;12.68;8.93;;;10.80;99.90;;;;;;5114163;28;20043;-81
2023/05/06 05:27:36;;;;;;;12.20;8.55;;;10.80;99.90;;;;;;5148054;28;20071;-80
2023/05/06 05:30:03;;;;;;;14.57;8.70;;;10.90;99.90;;;;;;5147321;28;20467;-81
2023/05/06 05:32:30;;;;;;;11.73;8.38;;;11.00;99.90;;;;;;5114341;28;20082;-81
2023/05/06 05:34:57;;;;;;;10.82;8.27;;;11.10;99.90;;;;;;5113842;28;20071;-80
2023/05/06 05:37:23;;;;;;;13.10;9.13;;;11.20;99.90;;;;;;5130753;28;20487;-80
2023/05/06 05:39:50;;;;;;;12.98;9.10;;;11.20;99.90;;;;;;5130602;28;20044;-80
2023/05/06 05:42:17;;;;;;;12.40;9.25;;;11.20;99.90;;;;;;5096845;28;20027;-80
2023/05/06 05:44:43;;;;;;;11.02;8.50;;;11.20;99.90;;;;;;5130868;28;20248;-80
2023/05/06 05:47:11;;;;;;;12.30;9.18;;;11.20;99.90;;;;;;5113565;28;20048;-80
2023/05/06 05:49:38;;;;;;;14.05;10.40;;;11.30;99.90;;;;;;5113780;28;20043;-81
2023/05/06 05:52:06;;;;;;;13.68;9.48;;;11.30;99.90;;;;;;5097014;28;20035;-80
2023/05/06 05:54:33;;;;;;;15.30;10.45;;;11.30;99.90;;;;;;5129654;28;20031;-81
2023/05/06 05:56:59;;;;;;;13.43;10.07;;;11.30;99.90;;;;;;5113279;28;20042;-80
2023/05/06 05:59:27;;;;;;;14.60;9.55;;;11.40;99.90;;;;;;5113790;28;20050;-80
2023/05/06 06:01:54;;;;;;;14.18;9.65;;;11.40;99.90;;;;;;5130281;28;20051;-80
2023/05/06 06:04:20;;;;;;;16.15;10.18;;;11.50;99.90;;;;;;5124503;28;20040;-80
2023/05/06 06:06:47;;;;;;;13.07;9.70;;;11.60;99.90;;;;;;5113216;28;20050;-81
2023/05/06 06:09:15;;;;;;;14.88;10.10;;;11.60;99.90;;;;;;5146886;28;20039;-81
2023/05/06 06:11:42;;;;;;;15.95;10.63;;;11.70;99.90;;;;;;5113988;28;20056;-81
2023/05/06 06:14:09;;;;;;;17.58;11.50;;;11.70;99.90;;;;;;5140977;27;20482;-80
2023/05/06 06:16:35;;;;;;;16.17;10.02;;;11.80;99.90;;;;;;5133938;27;20067;-81
2023/05/06 06:19:02;;;;;;;13.75;10.45;;;11.80;99.90;;;;;;5133220;27;20043;-81
2023/05/06 06:21:29;;;;;;;13.45;9.68;;;11.80;99.90;;;;;;5133855;27;20039;-80
2023/05/06 06:23:55;;;;;;;13.02;10.18;;;11.80;99.90;;;;;;5133771;27;20091;-80
2023/05/06 06:26:22;;;;;;;12.90;9.45;;;11.90;99.90;;;;;;5125314;28;20036;-81
2023/05/06 06:28:49;;;;;;;13.73;9.88;;;11.90;99.90;;;;;;5129873;28;20379;-80
2023/05/06 06:31:15;;;;;;;14.38;9.93;;;12.00;99.90;;;;;;5129468;28;20052;-80
2023/05/06 06:33:42;;;;;;;14.82;10.07;;;12.00;99.90;;;;;;5129849;28;20122;-80
2023/05/06 06:36:09;;;;;;;13.10;9.10;;;12.10;99.90;;;;;;5133638;27;20039;-81
2023/05/06 06:38:36;;;;;;;17.08;9.32;;;12.10;99.90;;;;;;5133256;27;20463;-80
2023/05/06 06:41:03;;;;;;;13.02;9.07;;;12.20;99.90;;;;;;5133391;27;20050;-80
2023/05/06 06:43:30;;;;;;;13.18;9.27;;;12.30;99.90;;;;;;5133101;28;20092;-81
2023/05/06 06:45:56;;;;;;;13.63;9.82;;;12.30;99.90;;;;;;5133669;27;20088;-81
2023/05/06 06:48:23;;;;;;;12.25;8.63;;;12.40;99.90;;;;;;5130120;28;20373;-81
2023/05/06 06:50:50;;;;;;;12.25;9.10;;;12.50;99.90;;;;;;5112501;28;20047;-80
2023/05/06 06:53:17;;;;;;;13.30;8.88;;;12.40;99.90;;;;;;5112892;28;20047;-85
2023/05/06 06:55:45;;;;;;;11.25;8.93;;;12.50;99.90;;;;;;5113429;28;20031;-81
2023/05/06 06:58:11;;;;;;;12.18;8.98;;;12.40;99.90;;;;;;5144789;28;20575;-83
2023/05/06 07:00:38;;;;;;;13.60;8.65;;;12.50;99.90;;;;;;5131533;28;20085;-82
2023/05/06 07:03:05;;;;;;;12.88;8.45;;;12.50;99.90;;;;;;5114585;28;20118;-82
2023/05/06 07:05:31;;;;;;;12.27;8.75;;;12.50;99.90;;;;;;5116677;28;20052;-82
2023/05/06 07:07:58;;;;;;;15.45;9.07;;;12.50;99.90;;;;;;5155742;28;20040;-82
2023/05/06 07:10:25;;;;;;;13.85;8.85;;;12.50;99.90;;;;;;5138528;28;20399;-82
2023/05/06 07:12:52;;;;;;;14.88;9.70;;;12.50;99.90;;;;;;5147344;28;20039;-82
2023/05/06 07:15:19;;;;;;;13.27;10.25;;;12.60;99.90;;;;;;5127680;28;20089;-82
2023/05/06 07:17:46;;;;;;;15.50;10.52;;;12.60;99.90;;;;;;5110243;28;20031;-82
2023/05/06 07:20:12;;;;;;;17.40;10.65;;;12.60;99.90;;;;;;5112241;28;20047;-82
2023/05/06 07:22:40;;;;;;;17.20;11.25;;;12.70;99.90;;;;;;5129456;28;20043;-82
2023/05/06 07:25:07;;;;;;;14.55;10.68;;;12.70;99.90;;;;;;5129461;28;20040;-82
2023/05/06 07:27:34;;;;;;;16.33;11.15;;;12.80;99.90;;;;;;5129139;28;20430;-82
2023/05/06 07:30:00;;;;;;;15.98;10.57;;;12.80;99.90;;;;;;5129106;28;20101;-82
2023/05/06 07:32:27;;;;;;;18.67;11.43;;;12.80;99.90;;;;;;5128812;28;20078;-82
2023/05/06 07:34:54;;;;;;;16.40;10.88;;;12.80;99.90;;;;;;5112366;28;20035;-82
2023/05/06 07:37:20;;;;;;;19.65;10.60;;;12.80;99.90;;;;;;5112166;28;20047;-82
2023/05/06 07:39:47;;;;;;;13.82;10.25;;;12.80;99.90;;;;;;5116114;28;20093;-82
2023/05/06 07:42:14;;;;;;;16.83;11.13;;;12.80;99.90;;;;;;5133222;27;20051;-82
2023/05/06 07:44:40;;;;;;;15.57;10.90;;;12.90;99.90;;;;;;5119892;27;20039;-82
2023/05/06 07:47:07;;;;;;;18.00;11.05;;;12.90;99.90;;;;;;5136586;27;20039;-82
2023/05/06 07:49:34;;;;;;;15.05;10.77;;;12.80;99.90;;;;;;5119253;27;20043;-82
2023/05/06 07:52:02;;;;;;;15.15;11.13;;;12.90;99.90;;;;;;5153776;27;20042;-82
2023/05/06 07:54:30;;;;;;;15.23;11.13;;;12.90;99.90;;;;;;5137834;28;20036;-82
2023/05/06 07:56:57;;;;;;;15.95;10.65;;;12.90;99.90;;;;;;5116342;28;20126;-82
2023/05/06 07:59:23;;;;;;;16.33;11.85;;;13.00;99.90;;;;;;5115954;28;20131;-82
2023/05/06 08:01:51;;;;;;;15.70;11.25;;;13.00;99.90;;;;;;5115940;28;20035;-82
2023/05/06 08:04:17;;;;;;;17.15;11.88;;;13.00;99.90;;;;;;5127947;27;20510;-82
2023/05/06 08:06:44;;;;;;;16.65;12.20;;;13.00;99.90;;;;;;5136306;27;20035;-82
2023/05/06 08:09:11;;;;;;;16.05;11.07;;;13.00;99.90;;;;;;5119427;27;20031;-82
2023/05/06 08:11:38;;;;;;;17.42;11.73;;;13.00;99.90;;;;;;5152936;27;20134;-82
2023/05/06 08:14:04;;;;;;;17.35;12.07;;;13.10;99.90;;;;;;5136107;27;20502;-82
2023/05/06 08:16:31;;;;;;;18.05;11.93;;;13.10;99.90;;;;;;5142915;28;20039;-82
2023/05/06 08:18:58;;;;;;;17.15;12.15;;;13.10;99.90;;;;;;5115672;28;20043;-82
2023/05/06 08:21:25;;;;;;;17.48;12.07;;;13.10;99.90;;;;;;5132269;28;20055;-81
2023/05/06 08:23:51;;;;;;;16.27;12.15;;;13.20;99.90;;;;;;5115679;28;20048;-82
2023/05/06 08:26:18;;;;;;;19.00;13.23;;;13.20;99.90;;;;;;5115339;28;20484;-81
2023/05/06 08:28:45;;;;;;;17.45;12.63;;;13.30;99.90;;;;;;5098588;28;20039;-82
2023/05/06 08:31:12;;;;;;;16.13;12.10;;;13.30;99.90;;;;;;5098619;28;20051;-82
2023/05/06 08:33:38;;;;;;;16.80;12.13;;;13.40;99.90;;;;;;5098273;28;20051;-82
2023/05/06 08:36:05;;;;;;;17.48;12.13;;;13.40;99.90;;;;;;5098914;28;20037;-82
2023/05/06 08:38:32;;;;;;;17.05;11.77;;;13.40;99.90;;;;;;5101734;27;20027;-82
2023/05/06 08:41:06;;;;;;;17.50;12.27;;;13.50;99.90;;;;;;5136119;27;20053;-82
2023/05/06 08:43:40;;;;;;;18.70;12.45;;;13.50;99.90;;;;;;5152250;27;20038;-82
2023/05/06 08:46:06;;;;;;;17.27;12.70;;;13.60;99.90;;;;;;5152691;27;20031;-82
2023/05/06 08:48:33;;;;;;;17.33;12.20;;;13.70;99.90;;;;;;5135985;27;20043;-81
2023/05/06 08:51:02;;;;;;;18.67;12.45;;;13.80;99.90;;;;;;5103093;28;20039;-81
2023/05/06 08:53:32;;;;;;;17.48;12.48;;;13.90;99.90;;;;;;5149026;28;20035;-82
2023/05/06 08:56:05;;;;;;;16.50;11.25;;;14.00;99.90;;;;;;5115688;28;20073;-82
2023/05/06 08:58:34;;;;;;;16.00;11.10;;;14.00;99.90;;;;;;5131566;28;20036;-82
2023/05/06 09:01:02;;;;;;;17.23;11.35;;;14.10;99.90;;;;;;5114951;28;20467;-82
2023/05/06 09:03:29;;;;;;;17.77;12.07;;;14.20;99.90;;;;;;5131396;28;20051;-82
2023/05/06 09:05:57;;;;;;;16.88;11.30;;;14.30;99.90;;;;;;5131685;28;20044;-82
2023/05/06 09:08:23;;;;;;;15.25;10.77;;;14.40;99.90;;;;;;5148477;28;20032;-81
2023/05/06 09:10:50;;;;;;;18.45;12.02;;;14.50;99.90;;;;;;5131352;28;20043;-82
2023/05/06 09:13:20;;;;;;;19.08;12.02;;;14.70;99.90;;;;;;5114973;28;20031;-82
2023/05/06 09:15:48;;;;;;;18.10;11.77;;;14.80;99.90;;;;;;5098280;28;20071;-82
2023/05/06 09:18:15;;;;;;;18.35;12.82;;;15.00;99.90;;;;;;5131310;28;20396;-82
2023/05/06 09:20:48;;;;;;;15.65;10.80;;;15.00;99.90;;;;;;5148025;28;20054;-82
2023/05/06 09:23:17;;;;;;;17.55;11.93;;;15.10;99.90;;;;;;5127132;27;20117;-82
2023/05/06 09:25:46;;;;;;;17.45;10.68;;;15.20;99.90;;;;;;5151245;27;20499;-82
2023/05/06 09:28:13;;;;;;;16.13;11.57;;;15.30;99.90;;;;;;5134496;27;20487;-82
2023/05/06 09:30:41;;;;;;;22.30;11.93;;;15.50;99.90;;;;;;5151102;27;20055;-82
2023/05/06 09:33:08;;;;;;;15.68;11.15;;;15.70;99.90;;;;;;5114536;28;20039;-82
2023/05/06 09:35:37;;;;;;;14.77;11.13;;;15.90;99.90;;;;;;5131097;28;20036;-81
2023/05/06 09:38:05;;;;;;;14.38;10.30;;;16.00;99.90;;;;;;5148680;28;20116;-82
2023/05/06 09:40:33;;;;;;;13.20;9.40;;;16.10;99.90;;;;;;5130977;28;20047;-81
2023/05/06 09:43:00;;;;;;;15.75;10.50;;;16.30;99.90;;;;;;5113938;28;20049;-82
2023/05/06 09:45:28;;;;;;;15.35;10.43;;;16.40;99.90;;;;;;5097339;28;20036;-82
2023/05/06 09:47:55;;;;;;;17.20;11.07;;;16.50;99.90;;;;;;5113492;28;20110;-82
2023/05/06 09:50:22;;;;;;;16.20;10.18;;;16.70;99.90;;;;;;5119339;28;20043;-82
2023/05/06 09:52:49;;;;;;;14.90;10.85;;;16.80;99.90;;;;;;5113655;28;20036;-82
2023/05/06 09:55:21;;;;;;;14.25;10.05;;;16.80;99.90;;;;;;5113597;28;20071;-82
2023/05/06 09:57:49;;;;;;;15.40;10.25;;;16.90;99.90;;;;;;5144087;27;20039;-82
2023/05/06 10:00:16;;;;;;;13.02;9.63;;;17.00;99.90;;;;;;5151234;27;20035;-82
2023/05/06 10:02:44;;;;;;;15.75;9.82;;;17.10;99.90;;;;;;5133747;27;20502;-81
2023/05/06 10:05:12;;;;;;;14.27;9.93;;;17.10;99.90;;;;;;5151702;27;20483;-83
2023/05/06 10:07:40;;;;;;;12.88;8.27;;;17.10;99.90;;;;;;5133790;27;20465;-82
2023/05/06 10:10:10;;;;;;;12.25;9.10;;;17.00;99.90;;;;;;5167927;27;20043;-82
2023/05/06 10:12:37;;;;;;;12.32;8.57;;;17.20;99.90;;;;;;5133895;27;20506;-82
2023/05/06 10:15:05;;;;;;;12.43;8.85;;;17.40;99.90;;;;;;5133964;27;20475;-82
2023/05/06 10:17:32;;;;;;;11.25;7.88;;;17.60;99.90;;;;;;5117321;27;20035;-82
2023/05/06 10:20:00;;;;;;;11.98;8.30;;;17.70;99.90;;;;;;5150220;27;20491;-82
2023/05/06 10:22:54;;;;;;;21.65;8.85;;;17.90;99.90;;;;;;5133929;27;20034;-82
2023/05/06 10:25:29;;;;;;;12.63;8.52;;;18.00;99.90;;;;;;5150751;27;20053;-82
2023/05/06 10:27:56;;;;;;;11.70;7.85;;;18.20;99.90;;;;;;5167329;27;20818;-82
2023/05/06 10:30:25;;;;;;;14.93;8.32;;;18.30;99.90;;;;;;5149022;27;20118;-82
2023/05/06 10:32:57;;;;;;;11.35;8.38;;;18.40;99.90;;;;;;5129935;28;20044;-82
2023/05/06 10:35:33;;;;;;;13.35;8.02;;;18.60;99.90;;;;;;5130131;28;20036;-82
2023/05/06 10:38:03;;;;;;;11.73;8.23;;;18.70;99.90;;;;;;5129833;28;20040;-82
2023/05/06 10:40:31;;;;;;;15.68;8.43;;;18.80;99.90;;;;;;5129773;28;20050;-82
2023/05/06 10:43:24;;;;;;;11.55;8.38;;;18.60;99.90;;;;;;5113230;28;20035;-82
2023/05/06 10:46:02;;;;;;;12.85;9.15;;;18.60;99.90;;;;;;5129594;28;20044;-82
2023/05/06 10:48:30;;;;;;;12.43;9.07;;;18.50;99.90;;;;;;5130166;28;20108;-82
2023/05/06 10:51:15;;;;;;;11.73;8.52;;;18.50;99.90;;;;;;5129422;28;20035;-83
2023/05/06 10:54:01;;;;;;;11.65;8.90;;;18.40;99.90;;;;;;5147809;28;20476;-82
2023/05/06 10:56:36;;;;;;;14.65;9.90;;;18.50;99.90;;;;;;5130163;28;20147;-83
2023/05/06 10:59:10;;;;;;;11.82;8.80;;;18.70;99.90;;;;;;5112861;28;20427;-82
2023/05/06 11:01:39;;;;;;;11.27;9.43;;;18.80;99.90;;;;;;5119832;28;20452;-82
2023/05/06 11:04:18;;;;;;;10.65;7.88;;;19.00;99.90;;;;;;5150142;28;20324;-82
2023/05/06 11:06:47;;;;;;;12.13;8.30;;;18.90;99.90;;;;;;5167045;28;20392;-82
2023/05/06 11:09:16;;;;;;;14.60;8.50;;;19.00;99.90;;;;;;5133566;28;20035;-83
2023/05/06 11:11:49;;;;;;;12.93;8.48;;;19.20;99.90;;;;;;5149886;28;20074;-82
2023/05/06 11:14:36;;;;;;;10.93;7.97;;;19.30;99.90;;;;;;5153019;27;20039;-83
2023/05/06 11:17:07;;;;;;;9.18;6.85;;;19.40;99.90;;;;;;5137567;27;20031;-83
2023/05/06 11:19:36;;;;;;;10.23;6.78;;;19.40;99.90;;;;;;5120958;27;20035;-82
2023/05/06 11:22:05;;;;;;;14.18;7.00;;;19.40;99.90;;;;;;5145282;27;20071;-83
2023/05/06 11:24:41;;;;;;;11.45;7.30;;;19.30;99.90;;;;;;5137449;27;20529;-83
2023/05/06 11:27:09;;;;;;;11.00;7.72;;;19.30;99.90;;;;;;5154474;27;20039;-83
2023/05/06 11:29:36;;;;;;;12.25;7.63;;;19.40;99.90;;;;;;5136894;27;20044;-83
2023/05/06 11:32:18;;;;;;;11.63;7.03;;;19.40;99.90;;;;;;5144420;28;20054;-82
2023/05/06 11:34:45;;;;;;;9.10;6.72;;;19.50;99.90;;;;;;5148806;27;20486;-83
2023/05/06 11:37:11;;;;;;;10.40;7.50;;;19.50;99.90;;;;;;5120096;27;20039;-83
2023/05/06 11:39:46;;;;;;;10.15;7.10;;;19.50;99.90;;;;;;5120550;27;20043;-82
2023/05/06 11:42:14;;;;;;;9.00;5.50;;;19.40;99.90;;;;;;5134432;28;20036;-83
2023/05/06 11:44:41;;;;;;;10.00;5.90;;;19.50;99.90;;;;;;5100644;28;20274;-82
2023/05/06 11:47:08;;;;;;;7.97;5.70;;;19.70;99.90;;;;;;5133132;28;20065;-83
2023/05/06 11:49:37;;;;;;;7.63;5.35;;;19.80;99.90;;;;;;5099692;28;20050;-83
2023/05/06 11:52:04;;;;;;;13.18;6.60;;;19.70;99.90;;;;;;5143603;27;20073;-82
2023/05/06 11:54:37;;;;;;;12.15;8.52;;;19.70;99.90;;;;;;5153762;27;20043;-83
2023/05/06 11:57:04;;;;;;;11.95;8.27;;;19.50;99.90;;;;;;5153731;27;20080;-83
2023/05/06 11:59:38;;;;;;;11.43;8.65;;;19.40;99.90;;;;;;5119850;27;20043;-83
2023/05/06 12:02:07;;;;;;;12.27;8.40;;;19.30;99.90;;;;;;5169761;27;20456;-82
2023/05/06 12:04:45;;;;;;;10.40;6.82;;;19.10;99.90;;;;;;5153346;27;20064;-83
2023/05/06 12:07:14;;;;;;;12.77;7.85;;;19.20;99.90;;;;;;5153189;27;20047;-82
2023/05/06 12:09:47;;;;;;;12.85;7.50;;;19.30;99.90;;;;;;5170497;27;20050;-83
2023/05/06 12:12:21;;;;;;;10.80;8.05;;;19.50;99.90;;;;;;5146210;28;20032;-83
2023/05/06 12:14:51;;;;;;;12.40;7.75;;;19.60;99.90;;;;;;5132853;28;20035;-83
2023/05/06 12:17:18;;;;;;;10.27;7.82;;;19.70;99.90;;;;;;5115966;28;20465;-83
2023/05/06 12:19:45;;;;;;;11.85;7.85;;;19.90;99.90;;;;;;5132553;28;20515;-83
2023/05/06 12:22:23;;;;;;;11.02;7.65;;;20.10;99.90;;;;;;5135945;27;20999;-83
2023/05/06 12:24:50;;;;;;;11.57;7.78;;;20.20;99.90;;;;;;5152071;27;20040;-83
2023/05/06 12:27:33;;;;;;;10.77;7.63;;;20.20;99.90;;;;;;5119003;27;20444;-83
2023/05/06 12:30:02;;;;;;;10.55;7.82;;;20.10;99.90;;;;;;5152705;27;20160;-82
2023/05/06 12:32:30;;;;;;;12.18;7.75;;;19.90;99.90;;;;;;5141970;28;20059;-83
2023/05/06 12:34:58;;;;;;;10.20;7.50;;;19.80;99.90;;;;;;5128553;27;20035;-82
2023/05/06 12:37:28;;;;;;;9.85;7.65;;;19.60;99.90;;;;;;5136321;27;20046;-83
2023/05/06 12:39:55;;;;;;;14.45;7.70;;;19.50;99.90;;;;;;5152285;27;20405;-82
2023/05/06 12:42:22;;;;;;;11.15;7.03;;;19.30;99.90;;;;;;5150809;27;20043;-82